Time;durP1;ratioP1;P1;durP2;ratioP2;P2;SDS_P1;SDS_P2;PMS_P1;PMS_P2;Temp;Humidity;BMP_temperature;BMP_pressure;BME280_temperature;BME280_humidity;BME280_pressure;Samples;Min_cycle;Max_cycle;Signal;HPM_P1;HPM_P2
2021/08/17 00:01:29;;;;;;;2.25;1.22;;;;;;;17.26;66.51;99516.16;1805835;78;21528;-90
2021/08/17 00:03:55;;;;;;;2.83;1.17;;;;;;;17.29;66.65;99529.96;1792802;78;21411;-92
2021/08/17 00:06:21;;;;;;;3.77;1.30;;;;;;;17.25;66.54;99529.16;1781653;79;21007;-88
2021/08/17 00:08:47;;;;;;;2.35;1.07;;;;;;;17.19;66.76;99531.19;1829545;78;21628;-88
2021/08/17 00:11:13;;;;;;;3.15;1.20;;;;;;;17.13;66.97;99535.87;1820340;78;20988;-90
2021/08/17 00:13:40;;;;;;;2.30;0.90;;;;;;;17.07;66.89;99534.20;1837958;78;21475;-90
2021/08/17 00:16:06;;;;;;;2.02;1.15;;;;;;;17.07;67.15;99538.72;1833547;78;21001;-90
2021/08/17 00:18:32;;;;;;;3.02;0.98;;;;;;;17.05;67.02;99535.41;1816522;78;20952;-89
2021/08/17 00:20:58;;;;;;;2.00;0.90;;;;;;;17.04;67.20;99529.73;1795417;79;21443;-88
2021/08/17 00:23:24;;;;;;;3.02;1.10;;;;;;;17.02;67.15;99533.09;1816080;78;21013;-88
2021/08/17 00:25:50;;;;;;;2.20;0.90;;;;;;;17.00;67.16;99530.58;1825921;78;20995;-90
2021/08/17 00:28:16;;;;;;;2.37;1.02;;;;;;;16.96;66.56;99531.11;1837078;78;21009;-88
2021/08/17 00:30:42;;;;;;;1.40;1.10;;;;;;;16.91;66.74;99544.09;1817379;78;20981;-89
2021/08/17 00:33:08;;;;;;;1.82;0.88;;;;;;;16.87;66.91;99533.78;1819040;78;21006;-90
2021/08/17 00:35:36;;;;;;;1.70;1.12;;;;;;;16.85;66.90;99537.14;1811846;79;20993;-90
2021/08/17 00:38:04;;;;;;;1.62;1.02;;;;;;;16.83;66.93;99536.46;1807617;78;21019;-89
2021/08/17 00:40:30;;;;;;;3.92;1.10;;;;;;;16.81;66.99;99534.49;1817723;78;20979;-89
2021/08/17 00:42:56;;;;;;;1.07;0.98;;;;;;;16.80;67.29;99550.13;1817796;78;20949;-88
2021/08/17 00:45:26;;;;;;;2.77;1.00;;;;;;;16.77;67.24;99545.13;1801425;78;20999;-89
2021/08/17 00:47:55;;;;;;;2.33;1.02;;;;;;;16.74;67.10;99537.45;1810247;78;20977;-92
2021/08/17 00:50:27;;;;;;;2.40;1.90;;;;;;;16.71;67.39;99532.97;1802175;78;20962;-91
2021/08/17 00:52:55;;;;;;;3.65;1.35;;;;;;;16.66;67.54;99530.82;1821135;78;20981;-90
2021/08/17 00:55:21;;;;;;;1.82;1.30;;;;;;;16.64;68.11;99524.31;1813689;77;20975;-90
2021/08/17 00:57:48;;;;;;;2.47;1.65;;;;;;;16.64;68.04;99526.16;1799635;78;20986;-93
2021/08/17 01:00:16;;;;;;;1.77;1.00;;;;;;;16.60;68.14;99528.33;1797041;78;20953;-92
2021/08/17 01:02:43;;;;;;;3.00;1.10;;;;;;;16.57;68.50;99526.50;1813457;78;21039;-90
2021/08/17 01:05:11;;;;;;;2.22;1.10;;;;;;;16.54;68.95;99526.84;1806646;78;21031;-90
2021/08/17 01:07:38;;;;;;;2.85;1.37;;;;;;;16.51;69.20;99520.52;1804807;78;20991;-90
2021/08/17 01:10:07;;;;;;;3.33;1.15;;;;;;;16.45;69.57;99521.19;1826702;78;20950;-88
2021/08/17 01:12:35;;;;;;;2.30;1.15;;;;;;;16.40;70.52;99517.20;1822049;78;21019;-89
2021/08/17 01:15:03;;;;;;;1.70;0.90;;;;;;;16.30;70.33;99521.87;1819789;78;21019;-88
2021/08/17 01:17:29;;;;;;;2.37;1.10;;;;;;;16.23;70.96;99526.22;1807681;78;20964;-91
2021/08/17 01:19:55;;;;;;;3.50;1.25;;;;;;;16.09;71.17;99522.40;1815527;78;20992;-90
2021/08/17 01:22:22;;;;;;;2.10;1.15;;;;;;;16.02;71.55;99523.21;1836221;78;21752;-91
2021/08/17 01:24:49;;;;;;;2.52;1.30;;;;;;;15.94;71.57;99516.89;1832564;78;21044;-90
2021/08/17 01:27:15;;;;;;;2.10;1.00;;;;;;;15.91;71.95;99518.55;1785161;79;21448;-92
2021/08/17 01:29:42;;;;;;;2.00;1.20;;;;;;;15.89;72.31;99521.03;1799043;78;20959;-91
2021/08/17 01:32:15;;;;;;;2.98;1.50;;;;;;;15.87;72.48;99529.20;1827424;78;20937;-92
2021/08/17 01:34:37;;;;;;;2.25;1.10;;;;;;;15.85;73.02;99525.86;1822101;78;20943;-91
2021/08/17 01:37:03;;;;;;;2.22;1.02;;;;;;;15.81;73.24;99521.05;1804500;78;21039;-90
2021/08/17 01:39:29;;;;;;;4.53;1.37;;;;;;;15.77;73.31;99533.84;1804189;79;20985;-89
2021/08/17 01:41:58;;;;;;;2.37;1.30;;;;;;;15.71;73.30;99533.98;1809229;78;20969;-90
2021/08/17 01:44:23;;;;;;;4.08;1.30;;;;;;;15.66;72.72;99531.00;1813929;79;21021;-89
2021/08/17 01:46:49;;;;;;;2.70;1.47;;;;;;;15.58;72.83;99533.60;1813965;78;21487;-90
2021/08/17 01:49:20;;;;;;;2.42;1.22;;;;;;;15.50;73.28;99536.25;1814374;78;21003;-90
2021/08/17 01:51:49;;;;;;;4.92;1.57;;;;;;;15.43;73.29;99541.86;1814242;78;21380;-90
2021/08/17 01:54:18;;;;;;;3.40;1.47;;;;;;;15.40;73.73;99550.15;1814320;79;20956;-90
2021/08/17 01:56:46;;;;;;;2.52;1.35;;;;;;;15.35;73.41;99546.66;1811665;79;20959;-90
2021/08/17 01:59:13;;;;;;;2.90;1.40;;;;;;;15.33;73.88;99556.61;1814170;79;20948;-90
2021/08/17 02:01:42;;;;;;;2.15;1.40;;;;;;;15.30;74.58;99566.73;1814085;78;20958;-91
2021/08/17 02:04:08;;;;;;;2.70;1.45;;;;;;;15.23;72.81;99570.05;1809965;79;20924;-90
2021/08/17 02:06:34;;;;;;;2.42;1.45;;;;;;;15.16;73.08;99561.53;1814147;78;20973;-91
2021/08/17 02:09:01;;;;;;;3.40;1.57;;;;;;;15.13;73.05;99572.47;1814134;78;21454;-91
2021/08/17 02:11:27;;;;;;;4.35;1.07;;;;;;;15.08;72.59;99571.63;1814092;79;20989;-89
2021/08/17 02:13:54;;;;;;;2.20;1.10;;;;;;;15.07;72.58;99579.75;1814204;78;21021;-90
2021/08/17 02:16:20;;;;;;;2.05;1.20;;;;;;;15.04;72.43;99576.08;1814281;78;21000;-90
2021/08/17 02:18:46;;;;;;;3.20;1.00;;;;;;;15.00;72.27;99581.73;1809858;79;20992;-91
2021/08/17 02:21:12;;;;;;;2.27;1.12;;;;;;;14.97;72.25;99583.38;1814296;79;21087;-90
2021/08/17 02:23:39;;;;;;;3.62;1.40;;;;;;;14.94;72.41;99578.38;1814208;79;21481;-83
2021/08/17 02:26:05;;;;;;;2.62;1.45;;;;;;;14.92;72.13;99583.50;1813785;79;21007;-89
2021/08/17 02:28:31;;;;;;;2.10;1.80;;;;;;;14.86;71.83;99577.48;1814010;78;20935;-89
2021/08/17 02:30:57;;;;;;;3.95;1.40;;;;;;;14.83;72.34;99578.62;1814251;78;20951;-90
2021/08/17 02:33:23;;;;;;;3.58;1.85;;;;;;;14.80;72.06;99580.27;1813962;79;21009;-88
2021/08/17 02:35:49;;;;;;;3.65;1.40;;;;;;;14.79;72.30;99585.25;1814419;78;20939;-89
2021/08/17 02:38:16;;;;;;;2.40;1.27;;;;;;;14.76;71.92;99585.05;1813944;79;20971;-90
2021/08/17 02:40:42;;;;;;;2.50;1.37;;;;;;;14.74;72.14;99588.84;1814275;79;21440;-89
2021/08/17 02:43:08;;;;;;;3.50;1.70;;;;;;;14.72;71.88;99590.84;1814156;78;21027;-90
2021/08/17 02:45:35;;;;;;;4.53;1.40;;;;;;;14.69;71.94;99598.63;1814222;79;20952;-89
2021/08/17 02:48:02;;;;;;;3.10;1.42;;;;;;;14.67;71.87;99596.61;1814144;78;20965;-90
2021/08/17 02:50:29;;;;;;;3.98;1.20;;;;;;;14.63;71.83;99592.60;1814373;78;21033;-91
2021/08/17 02:52:56;;;;;;;5.15;1.70;;;;;;;14.61;72.06;99596.39;1814145;78;20964;-91
2021/08/17 02:55:22;;;;;;;7.00;1.42;;;;;;;14.59;72.06;99597.06;1814298;78;20952;-91
2021/08/17 02:57:55;;;;;;;3.95;1.80;;;;;;;14.57;72.50;99596.37;1814303;78;20976;-91
2021/08/17 03:00:21;;;;;;;4.22;1.90;;;;;;;14.54;72.24;99598.37;1814379;78;21458;-84
2021/08/17 03:02:48;;;;;;;2.90;1.50;;;;;;;14.54;72.66;99602.81;1814218;78;21034;-90
2021/08/17 03:05:14;;;;;;;4.92;1.70;;;;;;;14.51;72.10;99601.80;1814391;78;21473;-90
2021/08/17 03:07:55;;;;;;;6.28;2.15;;;;;;;14.50;72.04;99609.40;1814350;78;20960;-89
2021/08/17 03:10:22;;;;;;;2.80;1.70;;;;;;;14.49;71.88;99613.88;1814381;78;21022;-91
2021/08/17 03:12:50;;;;;;;2.87;1.65;;;;;;;14.50;72.11;99606.27;1814255;78;20979;-89
2021/08/17 03:15:17;;;;;;;5.60;1.60;;;;;;;14.48;72.25;99612.22;1814297;78;20992;-91
2021/08/17 03:17:43;;;;;;;4.33;1.37;;;;;;;14.46;72.27;99613.35;1814253;78;21015;-91
2021/08/17 03:20:12;;;;;;;2.08;1.27;;;;;;;14.44;72.52;99615.31;1814460;78;21010;-91
2021/08/17 03:22:39;;;;;;;3.20;1.57;;;;;;;14.42;73.31;99614.66;1814209;78;20955;-89
2021/08/17 03:25:08;;;;;;;6.03;2.40;;;;;;;14.38;73.33;99615.45;1814348;78;21022;-88
2021/08/17 03:27:35;;;;;;;6.03;1.77;;;;;;;14.33;73.27;99616.39;1814374;78;21019;-88
2021/08/17 03:30:03;;;;;;;4.40;1.75;;;;;;;14.33;73.50;99619.55;1814324;78;21500;-88
2021/08/17 03:32:29;;;;;;;3.25;1.90;;;;;;;14.34;73.68;99615.89;1814332;78;20998;-89
2021/08/17 03:34:55;;;;;;;6.25;2.42;;;;;;;14.33;73.41;99624.36;1814434;78;20983;-88
2021/08/17 03:37:21;;;;;;;6.67;2.02;;;;;;;14.29;73.48;99623.00;1814312;78;21497;-89
2021/08/17 03:39:47;;;;;;;4.92;1.85;;;;;;;14.24;73.86;99629.24;1814630;79;21064;-89
2021/08/17 03:42:13;;;;;;;5.50;2.17;;;;;;;14.21;74.31;99634.35;1814500;79;21477;-89
2021/08/17 03:44:39;;;;;;;4.87;2.22;;;;;;;14.18;74.40;99633.82;1814502;79;21026;-90
2021/08/17 03:47:05;;;;;;;7.20;2.40;;;;;;;14.15;74.80;99634.98;1814335;79;20994;-90
2021/08/17 03:49:31;;;;;;;5.12;2.70;;;;;;;14.14;74.56;99636.45;1814789;78;21442;-89
2021/08/17 03:51:57;;;;;;;6.45;2.20;;;;;;;14.11;74.90;99638.07;1814291;79;20968;-88
2021/08/17 03:54:23;;;;;;;3.98;1.92;;;;;;;14.07;75.16;99637.54;1814681;78;20956;-89
2021/08/17 03:56:49;;;;;;;4.08;2.08;;;;;;;14.05;75.22;99639.53;1814480;78;20955;-88
2021/08/17 03:59:15;;;;;;;4.78;2.02;;;;;;;14.01;75.39;99636.31;1814684;78;20991;-88
2021/08/17 04:01:41;;;;;;;8.95;2.27;;;;;;;14.00;75.78;99640.45;1814434;79;21454;-87
2021/08/17 04:04:06;;;;;;;12.00;3.52;;;;;;;13.97;75.52;99652.19;1814443;78;21062;-87
2021/08/17 04:06:32;;;;;;;6.28;2.02;;;;;;;13.98;75.98;99663.63;1814522;78;21014;-88
2021/08/17 04:08:58;;;;;;;7.97;2.70;;;;;;;13.96;75.82;99665.13;1814401;79;20980;-89
2021/08/17 04:11:24;;;;;;;3.92;1.98;;;;;;;13.95;75.96;99666.58;1814543;78;21019;-87
2021/08/17 04:13:50;;;;;;;3.40;2.05;;;;;;;13.95;75.84;99668.77;1814324;78;21011;-89
2021/08/17 04:16:17;;;;;;;4.08;2.37;;;;;;;13.94;75.99;99664.92;1814471;78;20992;-87
2021/08/17 04:18:43;;;;;;;5.40;2.02;;;;;;;13.93;76.34;99657.46;1814446;78;21019;-89
2021/08/17 04:21:10;;;;;;;4.90;2.33;;;;;;;13.92;76.19;99662.44;1814581;79;20987;-87
2021/08/17 04:23:36;;;;;;;4.08;2.27;;;;;;;13.91;75.97;99660.73;1814285;78;20976;-88
2021/08/17 04:26:02;;;;;;;4.65;2.02;;;;;;;13.90;75.98;99660.41;1814343;78;21027;-88
2021/08/17 04:28:28;;;;;;;4.83;2.47;;;;;;;13.90;75.79;99664.38;1803305;79;20967;-88
2021/08/17 04:30:55;;;;;;;5.78;2.20;;;;;;;13.91;76.09;99662.06;1814340;79;21469;-87
2021/08/17 04:33:21;;;;;;;7.03;2.67;;;;;;;13.93;76.11;99659.28;1814392;78;20948;-88
2021/08/17 04:35:47;;;;;;;7.35;2.50;;;;;;;13.93;76.12;99666.74;1814417;79;21020;-88
2021/08/17 04:38:13;;;;;;;5.78;2.35;;;;;;;13.92;76.05;99669.06;1814421;78;20995;-89
2021/08/17 04:40:39;;;;;;;5.62;2.00;;;;;;;13.92;76.45;99666.41;1814599;78;20982;-86
2021/08/17 04:43:05;;;;;;;7.37;2.58;;;;;;;13.93;76.19;99670.72;1814387;79;20983;-87
2021/08/17 04:45:31;;;;;;;3.95;2.42;;;;;;;13.96;75.97;99680.20;1814425;78;21542;-88
2021/08/17 04:47:57;;;;;;;3.50;1.75;;;;;;;13.96;75.89;99683.69;1814355;78;21090;-87
2021/08/17 04:50:23;;;;;;;5.20;1.57;;;;;;;13.97;75.74;99684.52;1814610;78;20948;-88
2021/08/17 04:52:49;;;;;;;3.02;1.80;;;;;;;13.96;76.00;99683.69;1814453;78;21045;-88
2021/08/17 04:55:16;;;;;;;3.00;1.60;;;;;;;13.98;75.76;99684.84;1814437;78;20991;-90
2021/08/17 04:57:54;;;;;;;6.80;2.33;;;;;;;13.97;75.69;99691.15;1814066;78;21510;-87
2021/08/17 05:00:22;;;;;;;3.70;2.10;;;;;;;13.95;75.81;99690.45;1814406;79;21011;-89
2021/08/17 05:02:49;;;;;;;3.62;2.00;;;;;;;13.93;75.96;99696.41;1814268;79;20967;-88
2021/08/17 05:05:15;;;;;;;4.33;2.90;;;;;;;13.94;76.02;99703.37;1814303;78;20975;-89
2021/08/17 05:07:42;;;;;;;5.03;2.08;;;;;;;13.93;75.65;99699.06;1814267;78;21549;-89
2021/08/17 05:10:13;;;;;;;3.72;1.87;;;;;;;13.93;75.67;99701.72;1814506;78;21003;-89
2021/08/17 05:12:39;;;;;;;6.60;2.67;;;;;;;13.93;75.53;99713.66;1814158;78;20984;-89
2021/08/17 05:15:07;;;;;;;6.55;1.60;;;;;;;13.91;75.38;99705.00;1814434;78;21011;-84
2021/08/17 05:17:34;;;;;;;5.17;2.58;;;;;;;13.91;75.37;99712.95;1814378;79;20933;-88
2021/08/17 05:20:00;;;;;;;5.47;2.40;;;;;;;13.93;75.43;99720.28;1814560;78;20956;-86
2021/08/17 05:22:26;;;;;;;4.70;2.37;;;;;;;13.93;75.45;99714.48;1814292;78;20952;-88
2021/08/17 05:24:52;;;;;;;8.40;2.90;;;;;;;13.93;75.38;99718.46;1814552;78;20991;-88
2021/08/17 05:27:18;;;;;;;6.90;2.80;;;;;;;13.95;75.36;99724.47;1814231;78;20939;-90
2021/08/17 05:29:44;;;;;;;4.67;2.47;;;;;;;13.97;75.54;99722.98;1814494;78;20940;-90
2021/08/17 05:32:10;;;;;;;3.45;2.10;;;;;;;13.96;75.60;99722.15;1814232;78;20979;-87
2021/08/17 05:34:36;;;;;;;6.67;2.95;;;;;;;13.98;75.32;99726.80;1814531;78;20998;-87
2021/08/17 05:37:03;;;;;;;4.95;2.25;;;;;;;13.98;75.13;99733.42;1814311;79;21043;-89
2021/08/17 05:39:29;;;;;;;8.35;2.67;;;;;;;13.98;75.13;99730.77;1814369;78;20932;-90
2021/08/17 05:41:55;;;;;;;5.90;2.25;;;;;;;13.98;75.21;99745.36;1814542;78;21003;-86
2021/08/17 05:44:21;;;;;;;4.65;2.33;;;;;;;13.99;75.03;99755.01;1814330;78;21470;-88
2021/08/17 05:46:48;;;;;;;6.50;2.55;;;;;;;13.99;74.85;99744.40;1802676;79;22751;-90
2021/08/17 05:49:14;;;;;;;9.73;2.47;;;;;;;14.00;75.08;99757.17;1814390;78;21039;-89
2021/08/17 05:51:40;;;;;;;6.58;2.60;;;;;;;14.02;74.80;99756.55;1814420;78;21406;-90
2021/08/17 05:54:05;;;;;;;5.12;2.52;;;;;;;14.01;75.08;99762.31;1814331;79;21035;-90
2021/08/17 05:56:32;;;;;;;7.97;2.85;;;;;;;14.02;74.88;99766.66;1814378;79;21451;-89
2021/08/17 05:58:59;;;;;;;6.75;3.00;;;;;;;14.01;74.74;99760.16;1813936;78;20991;-86
2021/08/17 06:01:24;;;;;;;8.40;2.67;;;;;;;14.02;74.98;99760.02;1814479;78;20979;-90
2021/08/17 06:03:50;;;;;;;4.28;2.25;;;;;;;14.02;74.83;99765.83;1814234;78;21478;-90
2021/08/17 06:06:17;;;;;;;7.17;2.50;;;;;;;14.01;74.73;99763.64;1814332;78;21011;-87
2021/08/17 06:08:43;;;;;;;6.95;3.70;;;;;;;14.01;74.53;99758.33;1814166;78;21027;-91
2021/08/17 06:11:09;;;;;;;5.80;3.10;;;;;;;14.01;74.73;99760.16;1814350;78;20998;-90
2021/08/17 06:13:34;;;;;;;6.00;2.72;;;;;;;14.03;74.42;99753.73;1814144;79;21035;-88
2021/08/17 06:16:00;;;;;;;6.70;2.47;;;;;;;14.06;74.49;99755.25;1814313;79;21478;-90
2021/08/17 06:18:26;;;;;;;5.37;3.10;;;;;;;14.07;74.59;99752.44;1814043;78;21047;-87
2021/08/17 06:20:52;;;;;;;5.35;2.92;;;;;;;14.13;74.70;99746.21;1814281;78;20987;-89
2021/08/17 06:23:18;;;;;;;7.28;2.85;;;;;;;14.15;74.57;99757.49;1814200;78;21074;-90
2021/08/17 06:25:44;;;;;;;5.17;2.72;;;;;;;14.16;74.16;99759.19;1814409;78;20995;-88
2021/08/17 06:28:12;;;;;;;8.23;5.25;;;;;;;14.17;74.12;99748.91;1814312;78;20992;-89
2021/08/17 06:30:40;;;;;;;7.00;2.92;;;;;;;14.19;74.25;99754.91;1814352;78;20994;-89
2021/08/17 06:33:06;;;;;;;5.50;2.58;;;;;;;14.22;74.06;99760.75;1813965;78;21046;-88
2021/08/17 06:35:32;;;;;;;4.37;3.10;;;;;;;14.24;74.02;99765.90;1814307;78;20980;-89
2021/08/17 06:37:59;;;;;;;5.40;2.62;;;;;;;14.26;73.92;99758.63;1814204;78;20967;-89
2021/08/17 06:40:26;;;;;;;10.93;3.02;;;;;;;14.30;74.31;99752.04;1813889;78;21478;-88
2021/08/17 06:42:53;;;;;;;4.35;2.55;;;;;;;14.36;74.03;99754.59;1813820;78;20983;-87
2021/08/17 06:45:20;;;;;;;4.15;2.47;;;;;;;14.41;73.92;99758.48;1813677;78;21525;-87
2021/08/17 06:47:55;;;;;;;4.60;2.75;;;;;;;14.43;73.67;99760.47;1813936;78;20995;-89
2021/08/17 06:50:21;;;;;;;7.42;2.42;;;;;;;14.44;73.52;99762.13;1814187;78;20991;-90
2021/08/17 06:52:48;;;;;;;6.47;2.87;;;;;;;14.43;73.06;99769.77;1814083;78;21561;-87
2021/08/17 06:55:14;;;;;;;6.25;3.05;;;;;;;14.43;73.30;99768.94;1814143;78;21565;-90
2021/08/17 06:57:40;;;;;;;5.90;3.05;;;;;;;14.43;72.86;99769.77;1814078;78;21494;-91
2021/08/17 07:00:10;;;;;;;5.62;2.50;;;;;;;14.45;72.87;99777.59;1814440;78;21003;-90
2021/08/17 07:02:37;;;;;;;3.98;2.42;;;;;;;14.47;73.07;99773.78;1814025;79;20980;-87
2021/08/17 07:05:05;;;;;;;4.62;2.90;;;;;;;14.51;72.72;99777.86;1814310;78;21528;-87
2021/08/17 07:07:32;;;;;;;6.95;2.60;;;;;;;14.51;72.75;99780.98;1813264;78;21018;-88
2021/08/17 07:09:58;;;;;;;9.33;3.00;;;;;;;14.53;72.80;99776.38;1814295;79;20995;-89
2021/08/17 07:12:24;;;;;;;8.83;2.98;;;;;;;14.56;73.13;99782.71;1813985;78;21454;-90
2021/08/17 07:14:50;;;;;;;5.83;3.20;;;;;;;14.58;72.94;99782.55;1814384;79;21022;-85
2021/08/17 07:17:17;;;;;;;6.45;2.20;;;;;;;14.59;72.71;99793.03;1814413;78;21022;-88
2021/08/17 07:19:43;;;;;;;7.90;3.25;;;;;;;14.63;72.51;99784.27;1814386;79;21460;-92
2021/08/17 07:22:10;;;;;;;5.78;3.05;;;;;;;14.67;72.44;99786.47;1814231;78;21034;-87
2021/08/17 07:24:36;;;;;;;7.60;2.47;;;;;;;14.75;72.31;99791.04;1814353;78;21514;-91
2021/08/17 07:27:03;;;;;;;4.97;2.75;;;;;;;14.83;72.34;99788.95;1814200;78;21102;-91
2021/08/17 07:29:29;;;;;;;6.15;2.40;;;;;;;14.92;72.57;99799.50;1814347;78;21038;-89
2021/08/17 07:31:55;;;;;;;6.67;2.40;;;;;;;15.03;72.18;99793.11;1814305;79;21501;-91
2021/08/17 07:34:21;;;;;;;6.97;2.87;;;;;;;15.08;71.90;99800.64;1814326;78;20959;-91
2021/08/17 07:36:47;;;;;;;5.60;2.33;;;;;;;15.10;71.69;99790.67;1813879;78;21066;-86
2021/08/17 07:39:14;;;;;;;9.33;3.02;;;;;;;15.10;71.46;99801.30;1814198;78;20999;-91
2021/08/17 07:41:41;;;;;;;4.42;2.33;;;;;;;15.10;71.43;99800.80;1813905;78;21006;-87
2021/08/17 07:44:08;;;;;;;6.30;3.02;;;;;;;15.11;71.02;99791.87;1814232;79;20948;-87
2021/08/17 07:46:35;;;;;;;5.37;2.08;;;;;;;15.12;71.32;99797.52;1813902;78;21562;-91
2021/08/17 07:49:01;;;;;;;4.58;2.00;;;;;;;15.14;71.14;99793.39;1814218;78;20995;-88
2021/08/17 07:51:29;;;;;;;6.03;2.10;;;;;;;15.15;71.20;99793.72;1814252;78;20972;-89
2021/08/17 07:53:55;;;;;;;5.90;2.27;;;;;;;15.17;70.88;99799.73;1814214;78;20987;-90
2021/08/17 07:56:21;;;;;;;6.60;2.00;;;;;;;15.17;71.17;99804.55;1814295;78;20967;-86
2021/08/17 07:58:47;;;;;;;7.67;2.50;;;;;;;15.20;71.09;99800.72;1814123;78;21023;-88
2021/08/17 08:01:13;;;;;;;5.28;2.30;;;;;;;15.21;71.39;99805.89;1814347;78;20991;-89
2021/08/17 08:03:40;;;;;;;5.30;2.25;;;;;;;15.23;71.25;99807.92;1814306;79;21442;-88
2021/08/17 08:06:09;;;;;;;3.72;2.00;;;;;;;15.23;70.65;99817.69;1814267;78;21031;-89
2021/08/17 08:08:35;;;;;;;4.58;2.05;;;;;;;15.19;70.70;99815.83;1813273;78;21492;-92
2021/08/17 08:11:02;;;;;;;3.75;1.75;;;;;;;15.18;70.80;99814.67;1813827;78;20995;-88
2021/08/17 08:13:29;;;;;;;5.08;2.10;;;;;;;15.18;70.92;99817.33;1814141;78;20976;-86
2021/08/17 08:15:55;;;;;;;4.33;2.33;;;;;;;15.17;70.75;99818.33;1814098;78;21015;-91
2021/08/17 08:18:21;;;;;;;4.97;2.52;;;;;;;15.17;70.96;99815.17;1813965;78;21000;-86
2021/08/17 08:20:47;;;;;;;6.62;2.30;;;;;;;15.17;70.93;99819.66;1814193;78;20986;-90
2021/08/17 08:23:13;;;;;;;6.05;2.72;;;;;;;15.18;71.13;99831.95;1813667;78;21015;-88
2021/08/17 08:25:40;;;;;;;3.80;2.22;;;;;;;15.19;70.62;99824.31;1814201;78;21014;-89
2021/08/17 08:28:08;;;;;;;5.20;3.15;;;;;;;15.19;70.75;99830.45;1813606;79;21015;-92
2021/08/17 08:30:35;;;;;;;5.80;2.60;;;;;;;15.24;70.91;99826.86;1814097;78;20987;-89
2021/08/17 08:33:02;;;;;;;6.12;2.90;;;;;;;15.31;70.86;99832.89;1813858;78;20996;-86
2021/08/17 08:35:28;;;;;;;6.08;2.50;;;;;;;15.36;70.59;99834.08;1814207;78;20983;-88
2021/08/17 08:37:56;;;;;;;5.15;2.50;;;;;;;15.38;70.76;99830.78;1813599;79;21008;-88
2021/08/17 08:40:27;;;;;;;4.28;2.17;;;;;;;15.42;70.82;99836.13;1813896;78;21454;-86
2021/08/17 08:42:54;;;;;;;6.78;2.92;;;;;;;15.46;70.37;99841.96;1813930;78;21019;-94
2021/08/17 08:45:20;;;;;;;7.22;3.35;;;;;;;15.48;70.42;99842.66;1813794;78;21066;-89
2021/08/17 08:47:47;;;;;;;6.95;3.22;;;;;;;15.51;70.53;99842.84;1813709;79;21018;-86
2021/08/17 08:50:15;;;;;;;7.60;3.42;;;;;;;15.53;70.38;99836.86;1813953;78;20998;-83
2021/08/17 08:52:41;;;;;;;4.95;2.65;;;;;;;15.57;69.95;99838.24;1802640;78;21485;-87
2021/08/17 08:55:10;;;;;;;7.12;3.15;;;;;;;15.59;69.81;99837.57;1813650;78;21011;-88
2021/08/17 08:57:37;;;;;;;7.30;3.10;;;;;;;15.61;70.09;99839.59;1813686;79;20983;-88
2021/08/17 09:00:09;;;;;;;4.87;2.70;;;;;;;15.66;70.21;99840.84;1814212;78;21273;-85
2021/08/17 09:02:36;;;;;;;5.17;3.27;;;;;;;15.73;70.42;99835.73;1813951;78;21473;-88
2021/08/17 09:05:03;;;;;;;5.60;3.50;;;;;;;15.79;70.19;99831.59;1814304;78;20999;-88
2021/08/17 09:07:39;;;;;;;4.62;3.00;;;;;;;15.83;70.39;99831.13;1813926;79;21054;-85
2021/08/17 09:10:12;;;;;;;5.55;3.90;;;;;;;15.84;69.94;99828.80;1813987;78;20924;-89
2021/08/17 09:12:43;;;;;;;5.03;2.95;;;;;;;15.82;69.15;99840.08;1813879;78;20959;-91
2021/08/17 09:15:17;;;;;;;4.85;2.27;;;;;;;15.80;69.08;99847.91;1809735;79;21477;-88
2021/08/17 09:17:44;;;;;;;5.90;3.22;;;;;;;15.77;69.12;99848.22;1814158;78;21061;-89
2021/08/17 09:20:17;;;;;;;6.08;3.92;;;;;;;15.75;69.11;99850.19;1813945;79;20954;-89
2021/08/17 09:22:43;;;;;;;5.83;3.22;;;;;;;15.76;68.81;99845.20;1813279;78;20979;-87
2021/08/17 09:25:10;;;;;;;8.25;2.83;;;;;;;15.77;69.19;99846.39;1813889;78;21007;-88
2021/08/17 09:27:37;;;;;;;5.10;3.55;;;;;;;15.84;68.73;99854.08;1813256;79;20942;-86
2021/08/17 09:30:11;;;;;;;6.53;2.60;;;;;;;15.91;69.45;99842.31;1813809;79;21068;-84
2021/08/17 09:32:52;;;;;;;4.83;2.65;;;;;;;16.02;68.93;99846.02;1807782;79;20957;-88
2021/08/17 09:35:21;;;;;;;6.70;2.20;;;;;;;16.09;68.45;99852.41;1809866;79;20924;-87
2021/08/17 09:38:09;;;;;;;2.20;1.77;;;;;;;16.14;68.33;99847.42;1813887;79;21418;-85
2021/08/17 09:40:36;;;;;;;5.97;3.42;;;;;;;16.16;68.08;99855.27;1813733;79;20992;-86
2021/08/17 09:43:23;;;;;;;8.95;2.95;;;;;;;16.20;68.15;99848.63;1813736;78;20981;-91
2021/08/17 09:45:50;;;;;;;6.72;2.67;;;;;;;16.22;68.17;99854.60;1784112;79;21048;-89
2021/08/17 09:48:30;;;;;;;6.85;2.62;;;;;;;16.24;68.04;99862.45;1813723;79;21018;-89
2021/08/17 09:50:56;;;;;;;4.12;2.22;;;;;;;16.27;67.82;99856.80;1810396;79;21036;-85
2021/08/17 09:53:23;;;;;;;6.37;2.67;;;;;;;16.31;67.49;99852.83;1802206;79;21513;-88
2021/08/17 09:55:55;;;;;;;5.40;2.95;;;;;;;16.35;67.85;99856.36;1812854;79;20979;-86
2021/08/17 09:58:36;;;;;;;3.10;1.98;;;;;;;16.39;67.92;99857.70;1806791;79;20997;-86
2021/08/17 10:01:09;;;;;;;4.67;2.45;;;;;;;16.45;67.66;99868.69;1810744;78;20991;-89
2021/08/17 10:03:35;;;;;;;5.40;2.35;;;;;;;16.47;67.37;99864.05;1807780;79;20951;-87
2021/08/17 10:06:02;;;;;;;5.97;2.22;;;;;;;16.47;66.86;99862.71;1808944;78;21500;-88
2021/08/17 10:08:31;;;;;;;4.90;2.47;;;;;;;16.44;66.83;99865.69;1794411;79;21016;-87
2021/08/17 10:10:59;;;;;;;4.80;2.45;;;;;;;16.41;66.89;99878.33;1806535;79;21403;-89
2021/08/17 10:13:28;;;;;;;3.80;1.95;;;;;;;16.39;66.69;99876.34;1807081;79;21515;-87
2021/08/17 10:15:55;;;;;;;6.25;3.00;;;;;;;16.36;66.66;99872.66;1810842;79;21056;-90
2021/08/17 10:18:33;;;;;;;6.10;2.55;;;;;;;16.37;66.63;99868.16;1813907;78;21525;-88
2021/08/17 10:21:06;;;;;;;4.85;2.15;;;;;;;16.41;67.37;99872.17;1795190;78;20958;-89
2021/08/17 10:23:32;;;;;;;4.95;2.00;;;;;;;16.50;67.41;99870.38;1812497;78;20982;-84
2021/08/17 10:26:01;;;;;;;3.92;1.90;;;;;;;16.59;67.24;99876.08;1804382;79;21440;-89
2021/08/17 10:28:34;;;;;;;4.78;2.20;;;;;;;16.68;67.00;99868.43;1813854;78;20970;-88
2021/08/17 10:31:18;;;;;;;7.42;2.35;;;;;;;16.79;67.35;99873.51;1807276;78;20972;-87
2021/08/17 10:34:08;;;;;;;3.70;1.60;;;;;;;16.87;66.18;99872.19;1811763;78;21016;-89
2021/08/17 10:36:44;;;;;;;5.95;1.92;;;;;;;16.91;65.89;99862.53;1804225;79;21047;-87
2021/08/17 10:39:24;;;;;;;5.05;1.72;;;;;;;16.92;65.89;99869.05;1818237;78;20985;-86
2021/08/17 10:41:54;;;;;;;5.37;2.15;;;;;;;16.91;65.06;99873.19;1803526;77;20966;-90
2021/08/17 10:44:24;;;;;;;6.90;1.52;;;;;;;16.89;65.30;99869.38;1815654;78;20961;-87
2021/08/17 10:47:04;;;;;;;3.60;1.82;;;;;;;16.89;65.56;99870.70;1783042;79;20946;-88
2021/08/17 10:49:44;;;;;;;3.50;1.85;;;;;;;16.87;65.02;99866.85;1807189;78;21431;-89
2021/08/17 10:52:27;;;;;;;3.60;1.90;;;;;;;16.82;65.39;99880.35;1814476;79;21036;-89
2021/08/17 10:55:27;;;;;;;7.90;2.20;;;;;;;16.79;65.42;99860.69;1807642;77;21060;-89
2021/08/17 10:58:06;;;;;;;6.50;1.67;;;;;;;16.76;65.68;99877.83;1814308;79;20969;-89
2021/08/17 11:00:53;;;;;;;4.40;1.95;;;;;;;16.74;65.66;99865.63;1814272;79;21024;-84
2021/08/17 11:03:47;;;;;;;5.35;1.70;;;;;;;16.74;65.34;99875.78;1814201;79;20946;-83
2021/08/17 11:06:53;;;;;;;6.37;1.98;;;;;;;16.74;65.21;99865.13;1803121;79;21015;-90
2021/08/17 11:09:28;;;;;;;3.70;1.82;;;;;;;16.75;65.49;99872.64;1808438;78;20988;-87
2021/08/17 11:12:03;;;;;;;3.40;1.50;;;;;;;16.76;65.33;99874.34;1817635;77;21045;-88
2021/08/17 11:14:33;;;;;;;4.53;2.10;;;;;;;16.75;65.53;99884.63;1816036;78;21012;-87
2021/08/17 11:17:04;;;;;;;2.60;2.00;;;;;;;16.70;66.78;99893.09;1817491;78;21029;-86
2021/08/17 11:19:33;;;;;;;4.50;2.70;;;;;;;16.60;67.08;99893.22;1836954;77;20966;-88
2021/08/17 11:22:03;;;;;;;4.87;1.95;;;;;;;16.51;67.09;99884.86;1814274;79;21068;-87
2021/08/17 11:24:32;;;;;;;6.28;2.25;;;;;;;16.49;67.41;99886.03;1806058;78;21486;-88
2021/08/17 11:27:05;;;;;;;5.78;1.80;;;;;;;16.53;67.59;99891.37;1801217;78;20972;-88
2021/08/17 11:29:42;;;;;;;4.50;1.80;;;;;;;16.62;67.31;99897.08;1796731;78;20966;-87
2021/08/17 11:32:25;;;;;;;5.17;2.33;;;;;;;16.73;67.20;99888.77;1811836;78;20970;-87
2021/08/17 11:34:51;;;;;;;;;;;;;;;16.83;66.74;99889.50;1815370;78;21002;-87
2021/08/17 11:37:19;;;;;;;6.50;1.60;;;;;;;16.95;66.76;99896.70;1799242;78;20132;-86
2021/08/17 11:39:50;;;;;;;6.97;2.10;;;;;;;17.02;65.65;99893.72;1814362;78;20977;-87